sensor_id;sensor_type;location;lat;lon;timestamp;temperature;humidity
44587;DHT22;30296;41.832;12.602;2022-07-18T00:01:42;30.80;41.90
44587;DHT22;30296;41.832;12.602;2022-07-18T00:04:08;30.80;41.90
44587;DHT22;30296;41.832;12.602;2022-07-18T00:06:34;30.80;41.90
44587;DHT22;30296;41.832;12.602;2022-07-18T00:09:01;30.80;42.20
44587;DHT22;30296;41.832;12.602;2022-07-18T00:11:27;30.80;42.30
44587;DHT22;30296;41.832;12.602;2022-07-18T00:13:53;30.80;42.50
44587;DHT22;30296;41.832;12.602;2022-07-18T00:16:19;30.80;42.70
44587;DHT22;30296;41.832;12.602;2022-07-18T00:18:45;30.80;42.90
44587;DHT22;30296;41.832;12.602;2022-07-18T00:21:11;30.80;43.00
44587;DHT22;30296;41.832;12.602;2022-07-18T00:23:37;30.80;43.00
44587;DHT22;30296;41.832;12.602;2022-07-18T00:26:03;30.80;43.10
44587;DHT22;30296;41.832;12.602;2022-07-18T00:28:29;30.80;43.20
44587;DHT22;30296;41.832;12.602;2022-07-18T00:30:55;30.80;43.50
44587;DHT22;30296;41.832;12.602;2022-07-18T00:33:21;30.80;43.70
44587;DHT22;30296;41.832;12.602;2022-07-18T00:35:47;30.70;43.60
44587;DHT22;30296;41.832;12.602;2022-07-18T00:38:13;30.80;44.40
44587;DHT22;30296;41.832;12.602;2022-07-18T00:40:39;30.70;43.60
44587;DHT22;30296;41.832;12.602;2022-07-18T00:43:05;30.60;43.40
44587;DHT22;30296;41.832;12.602;2022-07-18T00:45:30;30.60;43.40
44587;DHT22;30296;41.832;12.602;2022-07-18T00:47:56;30.50;43.20
44587;DHT22;30296;41.832;12.602;2022-07-18T00:50:23;30.50;43.20
44587;DHT22;30296;41.832;12.602;2022-07-18T00:52:49;30.50;43.20
44587;DHT22;30296;41.832;12.602;2022-07-18T00:55:15;30.50;43.10
44587;DHT22;30296;41.832;12.602;2022-07-18T00:57:42;30.40;43.10
44587;DHT22;30296;41.832;12.602;2022-07-18T01:00:15;30.40;43.20
44587;DHT22;30296;41.832;12.602;2022-07-18T01:02:59;30.40;43.10
44587;DHT22;30296;41.832;12.602;2022-07-18T01:05:25;30.40;43.20
44587;DHT22;30296;41.832;12.602;2022-07-18T01:07:51;30.30;43.10
44587;DHT22;30296;41.832;12.602;2022-07-18T01:10:18;30.30;43.30
44587;DHT22;30296;41.832;12.602;2022-07-18T01:12:45;30.30;43.40
44587;DHT22;30296;41.832;12.602;2022-07-18T01:15:11;30.20;43.50
44587;DHT22;30296;41.832;12.602;2022-07-18T01:17:39;30.20;44.20
44587;DHT22;30296;41.832;12.602;2022-07-18T01:20:06;30.20;43.80
44587;DHT22;30296;41.832;12.602;2022-07-18T01:22:32;30.20;43.90
44587;DHT22;30296;41.832;12.602;2022-07-18T01:24:59;30.20;43.90
44587;DHT22;30296;41.832;12.602;2022-07-18T01:27:25;30.10;43.80
44587;DHT22;30296;41.832;12.602;2022-07-18T01:29:52;30.10;43.80
44587;DHT22;30296;41.832;12.602;2022-07-18T01:32:19;30.10;44.70
44587;DHT22;30296;41.832;12.602;2022-07-18T01:34:49;30.10;44.30
44587;DHT22;30296;41.832;12.602;2022-07-18T01:37:15;30.10;44.50
44587;DHT22;30296;41.832;12.602;2022-07-18T01:39:42;30.10;44.60
44587;DHT22;30296;41.832;12.602;2022-07-18T01:42:09;30.10;44.50
44587;DHT22;30296;41.832;12.602;2022-07-18T01:44:36;30.10;44.60
44587;DHT22;30296;41.832;12.602;2022-07-18T01:47:04;30.00;44.70
44587;DHT22;30296;41.832;12.602;2022-07-18T01:49:30;30.00;44.70
44587;DHT22;30296;41.832;12.602;2022-07-18T01:51:56;30.00;44.70
44587;DHT22;30296;41.832;12.602;2022-07-18T01:54:24;29.90;44.70
44587;DHT22;30296;41.832;12.602;2022-07-18T01:56:50;29.90;44.60
44587;DHT22;30296;41.832;12.602;2022-07-18T01:59:16;29.90;44.50
44587;DHT22;30296;41.832;12.602;2022-07-18T02:01:42;29.90;44.40
44587;DHT22;30296;41.832;12.602;2022-07-18T02:04:08;29.80;44.30
44587;DHT22;30296;41.832;12.602;2022-07-18T02:06:34;29.80;44.50
44587;DHT22;30296;41.832;12.602;2022-07-18T02:09:00;29.80;44.90
44587;DHT22;30296;41.832;12.602;2022-07-18T02:11:26;29.80;45.10
44587;DHT22;30296;41.832;12.602;2022-07-18T02:13:52;29.80;45.30
44587;DHT22;30296;41.832;12.602;2022-07-18T02:16:18;29.80;45.50
44587;DHT22;30296;41.832;12.602;2022-07-18T02:18:44;29.80;45.70
44587;DHT22;30296;41.832;12.602;2022-07-18T02:21:10;29.80;45.80
44587;DHT22;30296;41.832;12.602;2022-07-18T02:23:36;29.80;45.90
44587;DHT22;30296;41.832;12.602;2022-07-18T02:26:03;29.80;45.80
44587;DHT22;30296;41.832;12.602;2022-07-18T02:28:28;29.80;45.80
44587;DHT22;30296;41.832;12.602;2022-07-18T02:30:54;29.70;45.80
44587;DHT22;30296;41.832;12.602;2022-07-18T02:33:20;29.70;45.80
44587;DHT22;30296;41.832;12.602;2022-07-18T02:35:46;29.70;45.70
44587;DHT22;30296;41.832;12.602;2022-07-18T02:38:12;29.60;45.60
44587;DHT22;30296;41.832;12.602;2022-07-18T02:40:38;29.60;45.60
44587;DHT22;30296;41.832;12.602;2022-07-18T02:43:04;29.60;45.60
44587;DHT22;30296;41.832;12.602;2022-07-18T02:45:30;29.60;45.60
44587;DHT22;30296;41.832;12.602;2022-07-18T02:47:56;29.50;45.60
44587;DHT22;30296;41.832;12.602;2022-07-18T02:50:22;29.50;45.60
44587;DHT22;30296;41.832;12.602;2022-07-18T02:52:48;29.50;45.60
44587;DHT22;30296;41.832;12.602;2022-07-18T02:55:16;29.40;45.70
44587;DHT22;30296;41.832;12.602;2022-07-18T02:57:42;29.50;45.90
44587;DHT22;30296;41.832;12.602;2022-07-18T03:00:13;29.40;45.90
44587;DHT22;30296;41.832;12.602;2022-07-18T03:02:40;29.40;46.10
44587;DHT22;30296;41.832;12.602;2022-07-18T03:05:06;29.40;46.10
44587;DHT22;30296;41.832;12.602;2022-07-18T03:07:32;29.40;46.10
44587;DHT22;30296;41.832;12.602;2022-07-18T03:09:58;29.40;46.40
44587;DHT22;30296;41.832;12.602;2022-07-18T03:12:24;29.40;46.70
44587;DHT22;30296;41.832;12.602;2022-07-18T03:14:50;29.40;46.90
44587;DHT22;30296;41.832;12.602;2022-07-18T03:17:16;29.30;46.90
44587;DHT22;30296;41.832;12.602;2022-07-18T03:19:41;29.30;47.20
44587;DHT22;30296;41.832;12.602;2022-07-18T03:22:07;29.30;47.30
44587;DHT22;30296;41.832;12.602;2022-07-18T03:24:33;29.30;47.40
44587;DHT22;30296;41.832;12.602;2022-07-18T03:26:59;29.20;47.50
44587;DHT22;30296;41.832;12.602;2022-07-18T03:29:25;29.20;47.60
44587;DHT22;30296;41.832;12.602;2022-07-18T03:31:51;29.20;47.70
44587;DHT22;30296;41.832;12.602;2022-07-18T03:34:17;29.20;47.80
44587;DHT22;30296;41.832;12.602;2022-07-18T03:36:43;29.10;47.70
44587;DHT22;30296;41.832;12.602;2022-07-18T03:39:10;29.10;47.90
44587;DHT22;30296;41.832;12.602;2022-07-18T03:41:36;29.10;48.00
44587;DHT22;30296;41.832;12.602;2022-07-18T03:44:03;29.20;48.10
44587;DHT22;30296;41.832;12.602;2022-07-18T03:46:30;29.10;48.10
44587;DHT22;30296;41.832;12.602;2022-07-18T03:48:57;29.10;48.20
44587;DHT22;30296;41.832;12.602;2022-07-18T03:51:23;29.20;48.40
44587;DHT22;30296;41.832;12.602;2022-07-18T03:53:49;29.10;48.40
44587;DHT22;30296;41.832;12.602;2022-07-18T03:56:15;29.10;48.50
44587;DHT22;30296;41.832;12.602;2022-07-18T03:58:42;29.10;48.60
44587;DHT22;30296;41.832;12.602;2022-07-18T04:01:08;29.10;48.70
44587;DHT22;30296;41.832;12.602;2022-07-18T04:03:33;29.10;48.90
44587;DHT22;30296;41.832;12.602;2022-07-18T04:05:59;29.10;49.00
44587;DHT22;30296;41.832;12.602;2022-07-18T04:08:25;29.00;49.00
44587;DHT22;30296;41.832;12.602;2022-07-18T04:10:51;29.00;49.10
44587;DHT22;30296;41.832;12.602;2022-07-18T04:13:17;29.00;49.30
44587;DHT22;30296;41.832;12.602;2022-07-18T04:15:43;29.00;49.30
44587;DHT22;30296;41.832;12.602;2022-07-18T04:18:09;29.00;49.10
44587;DHT22;30296;41.832;12.602;2022-07-18T04:20:35;28.90;49.00
44587;DHT22;30296;41.832;12.602;2022-07-18T04:23:04;28.90;49.70
44587;DHT22;30296;41.832;12.602;2022-07-18T04:25:40;28.90;49.20
44587;DHT22;30296;41.832;12.602;2022-07-18T04:28:08;28.90;49.20
44587;DHT22;30296;41.832;12.602;2022-07-18T04:30:35;28.90;49.50
44587;DHT22;30296;41.832;12.602;2022-07-18T04:33:05;28.90;49.70
44587;DHT22;30296;41.832;12.602;2022-07-18T04:35:32;28.80;49.90
44587;DHT22;30296;41.832;12.602;2022-07-18T04:38:01;28.90;50.00
44587;DHT22;30296;41.832;12.602;2022-07-18T04:40:27;28.90;50.00
44587;DHT22;30296;41.832;12.602;2022-07-18T04:42:53;28.90;50.20
44587;DHT22;30296;41.832;12.602;2022-07-18T04:45:19;28.90;50.30
44587;DHT22;30296;41.832;12.602;2022-07-18T04:47:52;28.90;50.40
44587;DHT22;30296;41.832;12.602;2022-07-18T04:50:19;28.90;50.40
44587;DHT22;30296;41.832;12.602;2022-07-18T04:52:45;28.90;50.50
44587;DHT22;30296;41.832;12.602;2022-07-18T04:55:13;28.90;50.60
44587;DHT22;30296;41.832;12.602;2022-07-18T04:57:40;28.90;50.80
44587;DHT22;30296;41.832;12.602;2022-07-18T05:00:10;28.90;51.00
44587;DHT22;30296;41.832;12.602;2022-07-18T05:02:42;28.90;51.30
44587;DHT22;30296;41.832;12.602;2022-07-18T05:05:09;28.90;51.30
44587;DHT22;30296;41.832;12.602;2022-07-18T05:07:36;28.90;51.50
44587;DHT22;30296;41.832;12.602;2022-07-18T05:10:02;28.90;51.70
44587;DHT22;30296;41.832;12.602;2022-07-18T05:12:34;29.00;52.00
44587;DHT22;30296;41.832;12.602;2022-07-18T05:15:00;29.00;52.20
44587;DHT22;30296;41.832;12.602;2022-07-18T05:17:26;29.00;52.20
44587;DHT22;30296;41.832;12.602;2022-07-18T05:19:52;29.00;52.40
44587;DHT22;30296;41.832;12.602;2022-07-18T05:22:18;29.00;52.40
44587;DHT22;30296;41.832;12.602;2022-07-18T05:24:44;29.00;52.30
44587;DHT22;30296;41.832;12.602;2022-07-18T05:27:09;29.10;52.50
44587;DHT22;30296;41.832;12.602;2022-07-18T05:29:35;29.10;52.60
44587;DHT22;30296;41.832;12.602;2022-07-18T05:32:02;29.10;52.80
44587;DHT22;30296;41.832;12.602;2022-07-18T05:34:28;29.10;52.70
44587;DHT22;30296;41.832;12.602;2022-07-18T05:36:54;29.10;52.90
44587;DHT22;30296;41.832;12.602;2022-07-18T05:39:20;29.10;53.00
44587;DHT22;30296;41.832;12.602;2022-07-18T05:41:46;29.10;53.10
44587;DHT22;30296;41.832;12.602;2022-07-18T05:44:12;29.10;53.00
44587;DHT22;30296;41.832;12.602;2022-07-18T05:46:38;29.10;53.00
44587;DHT22;30296;41.832;12.602;2022-07-18T05:49:03;29.10;53.00
44587;DHT22;30296;41.832;12.602;2022-07-18T05:51:29;29.10;53.40
44587;DHT22;30296;41.832;12.602;2022-07-18T05:53:55;29.10;53.50
44587;DHT22;30296;41.832;12.602;2022-07-18T05:56:21;29.00;53.60
44587;DHT22;30296;41.832;12.602;2022-07-18T05:58:46;29.00;53.70
44587;DHT22;30296;41.832;12.602;2022-07-18T06:01:12;29.10;53.80
44587;DHT22;30296;41.832;12.602;2022-07-18T06:03:42;29.10;53.90
44587;DHT22;30296;41.832;12.602;2022-07-18T06:06:09;29.10;54.00
44587;DHT22;30296;41.832;12.602;2022-07-18T06:08:35;29.20;54.10
44587;DHT22;30296;41.832;12.602;2022-07-18T06:11:01;29.20;54.10
44587;DHT22;30296;41.832;12.602;2022-07-18T06:13:30;29.20;54.20
44587;DHT22;30296;41.832;12.602;2022-07-18T06:15:56;29.30;54.30
44587;DHT22;30296;41.832;12.602;2022-07-18T06:18:22;29.30;54.40
44587;DHT22;30296;41.832;12.602;2022-07-18T06:20:47;29.30;54.40
44587;DHT22;30296;41.832;12.602;2022-07-18T06:23:13;29.30;54.50
44587;DHT22;30296;41.832;12.602;2022-07-18T06:25:39;29.40;54.60
44587;DHT22;30296;41.832;12.602;2022-07-18T06:28:05;29.40;54.60
44587;DHT22;30296;41.832;12.602;2022-07-18T06:30:31;29.40;54.80
44587;DHT22;30296;41.832;12.602;2022-07-18T06:32:56;29.40;54.80
44587;DHT22;30296;41.832;12.602;2022-07-18T06:35:22;29.40;55.10
44587;DHT22;30296;41.832;12.602;2022-07-18T06:37:48;29.50;55.20
44587;DHT22;30296;41.832;12.602;2022-07-18T06:40:14;29.50;55.10
44587;DHT22;30296;41.832;12.602;2022-07-18T06:42:40;29.50;55.10
44587;DHT22;30296;41.832;12.602;2022-07-18T06:45:06;29.50;55.30
44587;DHT22;30296;41.832;12.602;2022-07-18T06:47:32;29.60;55.60
44587;DHT22;30296;41.832;12.602;2022-07-18T06:49:58;29.60;55.60
44587;DHT22;30296;41.832;12.602;2022-07-18T06:52:23;29.60;55.50
44587;DHT22;30296;41.832;12.602;2022-07-18T06:54:49;29.70;55.60
44587;DHT22;30296;41.832;12.602;2022-07-18T06:57:15;29.70;55.50
44587;DHT22;30296;41.832;12.602;2022-07-18T06:59:41;29.70;55.50
44587;DHT22;30296;41.832;12.602;2022-07-18T07:02:07;29.70;55.40
44587;DHT22;30296;41.832;12.602;2022-07-18T07:04:33;29.80;55.50
44587;DHT22;30296;41.832;12.602;2022-07-18T07:06:58;29.80;55.40
44587;DHT22;30296;41.832;12.602;2022-07-18T07:09:24;29.90;55.60
44587;DHT22;30296;41.832;12.602;2022-07-18T07:11:50;29.90;55.80
44587;DHT22;30296;41.832;12.602;2022-07-18T07:14:16;29.90;55.60
44587;DHT22;30296;41.832;12.602;2022-07-18T07:16:42;29.90;55.60
44587;DHT22;30296;41.832;12.602;2022-07-18T07:19:08;29.90;55.50
44587;DHT22;30296;41.832;12.602;2022-07-18T07:21:33;30.00;55.70
44587;DHT22;30296;41.832;12.602;2022-07-18T07:24:12;30.00;55.80
44587;DHT22;30296;41.832;12.602;2022-07-18T07:26:38;30.10;55.60
44587;DHT22;30296;41.832;12.602;2022-07-18T07:29:03;30.10;55.40
44587;DHT22;30296;41.832;12.602;2022-07-18T07:31:29;30.10;55.20
44587;DHT22;30296;41.832;12.602;2022-07-18T07:33:55;30.20;55.10
44587;DHT22;30296;41.832;12.602;2022-07-18T07:36:21;30.20;55.10
44587;DHT22;30296;41.832;12.602;2022-07-18T07:38:47;30.20;55.20
44587;DHT22;30296;41.832;12.602;2022-07-18T07:41:13;30.30;55.20
44587;DHT22;30296;41.832;12.602;2022-07-18T07:43:39;30.30;55.30
44587;DHT22;30296;41.832;12.602;2022-07-18T07:46:05;30.30;55.20
44587;DHT22;30296;41.832;12.602;2022-07-18T07:48:31;30.40;55.30
44587;DHT22;30296;41.832;12.602;2022-07-18T07:50:57;30.40;55.40
44587;DHT22;30296;41.832;12.602;2022-07-18T07:53:23;30.40;55.30
44587;DHT22;30296;41.832;12.602;2022-07-18T07:55:49;30.40;55.50
44587;DHT22;30296;41.832;12.602;2022-07-18T07:58:15;30.50;55.40
44587;DHT22;30296;41.832;12.602;2022-07-18T08:00:41;30.50;55.30
44587;DHT22;30296;41.832;12.602;2022-07-18T08:03:08;30.50;55.40
44587;DHT22;30296;41.832;12.602;2022-07-18T08:05:37;30.60;55.30
44587;DHT22;30296;41.832;12.602;2022-07-18T08:08:05;30.70;55.60
44587;DHT22;30296;41.832;12.602;2022-07-18T08:10:31;30.60;55.30
44587;DHT22;30296;41.832;12.602;2022-07-18T08:12:57;30.70;55.30
44587;DHT22;30296;41.832;12.602;2022-07-18T08:15:23;30.70;55.20
44587;DHT22;30296;41.832;12.602;2022-07-18T08:17:50;30.80;55.30
44587;DHT22;30296;41.832;12.602;2022-07-18T08:20:16;30.80;55.40
44587;DHT22;30296;41.832;12.602;2022-07-18T08:25:21;30.90;55.50
44587;DHT22;30296;41.832;12.602;2022-07-18T08:27:47;30.90;55.50
44587;DHT22;30296;41.832;12.602;2022-07-18T08:30:13;31.00;55.40
44587;DHT22;30296;41.832;12.602;2022-07-18T08:32:39;31.00;55.20
44587;DHT22;30296;41.832;12.602;2022-07-18T08:35:05;31.10;55.00
44587;DHT22;30296;41.832;12.602;2022-07-18T08:37:31;31.10;54.90
44587;DHT22;30296;41.832;12.602;2022-07-18T08:39:57;31.20;54.80
44587;DHT22;30296;41.832;12.602;2022-07-18T08:42:26;31.20;54.80
44587;DHT22;30296;41.832;12.602;2022-07-18T08:44:56;31.30;54.60
44587;DHT22;30296;41.832;12.602;2022-07-18T08:47:23;31.30;54.60
44587;DHT22;30296;41.832;12.602;2022-07-18T08:49:52;31.40;54.60
44587;DHT22;30296;41.832;12.602;2022-07-18T08:52:20;31.40;54.50
44587;DHT22;30296;41.832;12.602;2022-07-18T08:54:46;31.50;55.00
44587;DHT22;30296;41.832;12.602;2022-07-18T08:57:14;31.50;54.30
44587;DHT22;30296;41.832;12.602;2022-07-18T08:59:40;31.50;54.20
44587;DHT22;30296;41.832;12.602;2022-07-18T09:02:07;31.60;54.10
44587;DHT22;30296;41.832;12.602;2022-07-18T09:04:41;31.70;54.10
44587;DHT22;30296;41.832;12.602;2022-07-18T09:07:08;31.80;54.00
44587;DHT22;30296;41.832;12.602;2022-07-18T09:09:36;31.80;53.70
44587;DHT22;30296;41.832;12.602;2022-07-18T09:12:05;31.90;53.70
44587;DHT22;30296;41.832;12.602;2022-07-18T09:14:36;32.10;53.60
44587;DHT22;30296;41.832;12.602;2022-07-18T09:17:20;32.30;53.40
44587;DHT22;30296;41.832;12.602;2022-07-18T09:22:28;33.00;52.00
44587;DHT22;30296;41.832;12.602;2022-07-18T09:24:55;33.50;51.30
44587;DHT22;30296;41.832;12.602;2022-07-18T09:27:35;34.00;50.50
44587;DHT22;30296;41.832;12.602;2022-07-18T09:33:12;34.90;48.80
44587;DHT22;30296;41.832;12.602;2022-07-18T09:35:47;35.20;48.10
44587;DHT22;30296;41.832;12.602;2022-07-18T09:38:18;35.40;47.60
44587;DHT22;30296;41.832;12.602;2022-07-18T09:40:50;35.70;47.50
44587;DHT22;30296;41.832;12.602;2022-07-18T09:43:18;35.70;47.00
44587;DHT22;30296;41.832;12.602;2022-07-18T09:45:47;35.70;47.00
44587;DHT22;30296;41.832;12.602;2022-07-18T09:48:16;35.70;46.80
44587;DHT22;30296;41.832;12.602;2022-07-18T09:50:52;35.60;46.40
44587;DHT22;30296;41.832;12.602;2022-07-18T09:55:59;35.30;45.60
44587;DHT22;30296;41.832;12.602;2022-07-18T09:58:30;35.20;45.10
44587;DHT22;30296;41.832;12.602;2022-07-18T10:00:58;35.20;44.40
44587;DHT22;30296;41.832;12.602;2022-07-18T10:03:24;35.10;44.20
44587;DHT22;30296;41.832;12.602;2022-07-18T10:05:52;35.10;44.10
44587;DHT22;30296;41.832;12.602;2022-07-18T10:08:20;35.10;44.00
44587;DHT22;30296;41.832;12.602;2022-07-18T10:10:48;35.10;43.70
44587;DHT22;30296;41.832;12.602;2022-07-18T10:13:14;35.10;43.60
44587;DHT22;30296;41.832;12.602;2022-07-18T10:15:43;35.10;43.20
44587;DHT22;30296;41.832;12.602;2022-07-18T10:18:12;35.20;43.00
44587;DHT22;30296;41.832;12.602;2022-07-18T10:20:43;35.20;43.10
44587;DHT22;30296;41.832;12.602;2022-07-18T10:23:45;35.20;43.00
44587;DHT22;30296;41.832;12.602;2022-07-18T10:26:16;35.20;42.80
44587;DHT22;30296;41.832;12.602;2022-07-18T10:31:28;35.30;42.70
44587;DHT22;30296;41.832;12.602;2022-07-18T10:39:14;35.30;42.20
44587;DHT22;30296;41.832;12.602;2022-07-18T10:57:32;35.40;43.60
44587;DHT22;30296;41.832;12.602;2022-07-18T11:00:00;35.40;43.70
44587;DHT22;30296;41.832;12.602;2022-07-18T11:02:45;35.50;43.80
44587;DHT22;30296;41.832;12.602;2022-07-18T11:13:30;35.60;43.40
44587;DHT22;30296;41.832;12.602;2022-07-18T11:21:26;35.70;43.20
44587;DHT22;30296;41.832;12.602;2022-07-18T11:23:59;35.70;42.90
44587;DHT22;30296;41.832;12.602;2022-07-18T11:26:26;35.70;42.60
44587;DHT22;30296;41.832;12.602;2022-07-18T11:28:59;35.70;42.30
44587;DHT22;30296;41.832;12.602;2022-07-18T11:31:26;35.80;42.00
44587;DHT22;30296;41.832;12.602;2022-07-18T11:33:52;35.90;41.60
44587;DHT22;30296;41.832;12.602;2022-07-18T11:36:21;35.80;41.50
44587;DHT22;30296;41.832;12.602;2022-07-18T11:38:52;35.80;41.30
44587;DHT22;30296;41.832;12.602;2022-07-18T11:41:20;35.90;41.20
44587;DHT22;30296;41.832;12.602;2022-07-18T11:43:47;36.00;40.90
44587;DHT22;30296;41.832;12.602;2022-07-18T11:46:16;36.10;40.60
44587;DHT22;30296;41.832;12.602;2022-07-18T11:48:44;36.10;40.30
44587;DHT22;30296;41.832;12.602;2022-07-18T11:51:14;36.20;40.20
44587;DHT22;30296;41.832;12.602;2022-07-18T11:53:47;36.30;40.00
44587;DHT22;30296;41.832;12.602;2022-07-18T11:56:14;36.40;39.90
44587;DHT22;30296;41.832;12.602;2022-07-18T11:58:42;36.50;39.80
44587;DHT22;30296;41.832;12.602;2022-07-18T12:01:07;36.60;39.50
44587;DHT22;30296;41.832;12.602;2022-07-18T12:03:36;36.70;39.30
44587;DHT22;30296;41.832;12.602;2022-07-18T12:06:13;36.70;39.10
44587;DHT22;30296;41.832;12.602;2022-07-18T12:08:44;36.70;38.80
44587;DHT22;30296;41.832;12.602;2022-07-18T12:13:58;36.60;38.50
44587;DHT22;30296;41.832;12.602;2022-07-18T12:16:29;36.50;38.50
44587;DHT22;30296;41.832;12.602;2022-07-18T12:18:59;36.50;38.40
44587;DHT22;30296;41.832;12.602;2022-07-18T12:21:43;36.50;38.30
44587;DHT22;30296;41.832;12.602;2022-07-18T12:35:12;36.20;38.20
44587;DHT22;30296;41.832;12.602;2022-07-18T12:37:39;36.20;38.30
44587;DHT22;30296;41.832;12.602;2022-07-18T12:40:10;36.20;38.20
44587;DHT22;30296;41.832;12.602;2022-07-18T12:42:39;36.20;38.00
44587;DHT22;30296;41.832;12.602;2022-07-18T12:45:06;36.10;37.90
44587;DHT22;30296;41.832;12.602;2022-07-18T12:47:33;36.10;37.80
44587;DHT22;30296;41.832;12.602;2022-07-18T12:49:59;36.10;37.70
44587;DHT22;30296;41.832;12.602;2022-07-18T12:52:25;36.20;37.80
44587;DHT22;30296;41.832;12.602;2022-07-18T12:54:51;36.20;37.60
44587;DHT22;30296;41.832;12.602;2022-07-18T12:57:18;36.30;37.50
44587;DHT22;30296;41.832;12.602;2022-07-18T12:59:45;36.30;37.50
44587;DHT22;30296;41.832;12.602;2022-07-18T13:02:11;36.30;37.40
44587;DHT22;30296;41.832;12.602;2022-07-18T13:04:37;36.30;37.60
44587;DHT22;30296;41.832;12.602;2022-07-18T13:07:03;36.40;37.60
44587;DHT22;30296;41.832;12.602;2022-07-18T13:09:29;36.40;37.50
44587;DHT22;30296;41.832;12.602;2022-07-18T13:11:55;36.40;37.50
44587;DHT22;30296;41.832;12.602;2022-07-18T13:14:21;36.30;37.40
44587;DHT22;30296;41.832;12.602;2022-07-18T13:16:47;36.30;37.30
44587;DHT22;30296;41.832;12.602;2022-07-18T13:19:14;36.40;37.40
44587;DHT22;30296;41.832;12.602;2022-07-18T13:21:41;36.40;37.20
44587;DHT22;30296;41.832;12.602;2022-07-18T13:24:07;36.40;37.20
44587;DHT22;30296;41.832;12.602;2022-07-18T13:26:33;36.40;37.40
44587;DHT22;30296;41.832;12.602;2022-07-18T13:28:59;36.40;37.60
44587;DHT22;30296;41.832;12.602;2022-07-18T13:31:25;36.40;37.60
44587;DHT22;30296;41.832;12.602;2022-07-18T13:33:51;36.40;37.60
44587;DHT22;30296;41.832;12.602;2022-07-18T13:36:18;36.40;37.90
44587;DHT22;30296;41.832;12.602;2022-07-18T13:38:43;36.40;37.80
44587;DHT22;30296;41.832;12.602;2022-07-18T13:41:10;36.40;37.80
44587;DHT22;30296;41.832;12.602;2022-07-18T13:43:36;36.40;37.90
44587;DHT22;30296;41.832;12.602;2022-07-18T13:46:06;36.40;37.90
44587;DHT22;30296;41.832;12.602;2022-07-18T13:48:32;36.30;38.10
44587;DHT22;30296;41.832;12.602;2022-07-18T13:50:58;36.20;38.40
44587;DHT22;30296;41.832;12.602;2022-07-18T13:53:25;36.10;38.60
44587;DHT22;30296;41.832;12.602;2022-07-18T13:55:51;36.00;38.90
44587;DHT22;30296;41.832;12.602;2022-07-18T13:58:17;35.90;39.20
44587;DHT22;30296;41.832;12.602;2022-07-18T14:00:44;35.90;39.50
44587;DHT22;30296;41.832;12.602;2022-07-18T14:03:10;35.80;39.70
44587;DHT22;30296;41.832;12.602;2022-07-18T14:05:37;35.80;39.70
44587;DHT22;30296;41.832;12.602;2022-07-18T14:08:05;35.70;39.70
44587;DHT22;30296;41.832;12.602;2022-07-18T14:10:31;35.70;39.90
44587;DHT22;30296;41.832;12.602;2022-07-18T14:12:57;35.70;40.30
44587;DHT22;30296;41.832;12.602;2022-07-18T14:15:22;35.70;40.60
44587;DHT22;30296;41.832;12.602;2022-07-18T14:17:48;35.80;40.80
44587;DHT22;30296;41.832;12.602;2022-07-18T14:20:14;35.80;41.00
44587;DHT22;30296;41.832;12.602;2022-07-18T14:22:42;35.80;40.80
44587;DHT22;30296;41.832;12.602;2022-07-18T14:25:10;35.80;40.70
44587;DHT22;30296;41.832;12.602;2022-07-18T14:27:37;35.80;41.00
44587;DHT22;30296;41.832;12.602;2022-07-18T14:30:04;35.80;41.10
44587;DHT22;30296;41.832;12.602;2022-07-18T14:32:30;35.80;41.20
44587;DHT22;30296;41.832;12.602;2022-07-18T14:34:56;35.80;41.50
44587;DHT22;30296;41.832;12.602;2022-07-18T14:37:22;35.80;41.80
44587;DHT22;30296;41.832;12.602;2022-07-18T14:39:48;35.80;42.00
44587;DHT22;30296;41.832;12.602;2022-07-18T14:42:14;35.80;41.90
44587;DHT22;30296;41.832;12.602;2022-07-18T14:44:40;35.70;41.40
44587;DHT22;30296;41.832;12.602;2022-07-18T14:47:05;35.70;41.50
44587;DHT22;30296;41.832;12.602;2022-07-18T14:49:31;35.70;41.70
44587;DHT22;30296;41.832;12.602;2022-07-18T14:51:57;35.70;41.90
44587;DHT22;30296;41.832;12.602;2022-07-18T14:54:29;35.70;42.20
44587;DHT22;30296;41.832;12.602;2022-07-18T14:56:55;35.70;42.40
44587;DHT22;30296;41.832;12.602;2022-07-18T14:59:22;35.70;42.20
44587;DHT22;30296;41.832;12.602;2022-07-18T15:01:48;35.70;42.10
44587;DHT22;30296;41.832;12.602;2022-07-18T15:04:15;35.70;42.10
44587;DHT22;30296;41.832;12.602;2022-07-18T15:06:41;35.70;42.50
44587;DHT22;30296;41.832;12.602;2022-07-18T15:09:08;35.70;43.00
44587;DHT22;30296;41.832;12.602;2022-07-18T15:11:38;35.70;43.80
44587;DHT22;30296;41.832;12.602;2022-07-18T15:14:04;35.70;44.30
44587;DHT22;30296;41.832;12.602;2022-07-18T15:16:30;35.60;44.60
44587;DHT22;30296;41.832;12.602;2022-07-18T15:18:56;35.60;44.80
44587;DHT22;30296;41.832;12.602;2022-07-18T15:21:21;35.50;45.20
44587;DHT22;30296;41.832;12.602;2022-07-18T15:23:47;35.40;45.50
44587;DHT22;30296;41.832;12.602;2022-07-18T15:26:13;35.30;45.60
44587;DHT22;30296;41.832;12.602;2022-07-18T15:28:39;35.20;45.90
44587;DHT22;30296;41.832;12.602;2022-07-18T15:31:05;35.20;45.70
44587;DHT22;30296;41.832;12.602;2022-07-18T15:33:33;35.20;45.50
44587;DHT22;30296;41.832;12.602;2022-07-18T15:35:59;35.20;46.10
44587;DHT22;30296;41.832;12.602;2022-07-18T15:38:25;35.20;46.20
44587;DHT22;30296;41.832;12.602;2022-07-18T15:40:51;35.20;46.30
44587;DHT22;30296;41.832;12.602;2022-07-18T15:43:16;35.10;46.30
44587;DHT22;30296;41.832;12.602;2022-07-18T15:45:43;35.10;46.10
44587;DHT22;30296;41.832;12.602;2022-07-18T15:48:08;35.10;46.00
44587;DHT22;30296;41.832;12.602;2022-07-18T15:50:34;35.10;46.00
44587;DHT22;30296;41.832;12.602;2022-07-18T15:53:00;35.20;46.20
44587;DHT22;30296;41.832;12.602;2022-07-18T15:55:26;35.10;46.30
44587;DHT22;30296;41.832;12.602;2022-07-18T15:57:52;35.20;46.40
44587;DHT22;30296;41.832;12.602;2022-07-18T16:00:18;35.10;46.40
44587;DHT22;30296;41.832;12.602;2022-07-18T16:02:44;35.20;46.40
44587;DHT22;30296;41.832;12.602;2022-07-18T16:05:10;35.30;46.40
44587;DHT22;30296;41.832;12.602;2022-07-18T16:07:36;35.40;46.20
44587;DHT22;30296;41.832;12.602;2022-07-18T16:10:03;35.50;45.90
44587;DHT22;30296;41.832;12.602;2022-07-18T16:12:28;35.50;45.50
44587;DHT22;30296;41.832;12.602;2022-07-18T16:14:55;35.60;45.10
44587;DHT22;30296;41.832;12.602;2022-07-18T16:17:21;35.60;44.70